createdAt,value
2023-01-01T00:00:49.558Z,462.30
2023-01-01T00:03:16.591Z,427.40
2023-01-01T00:05:44.004Z,420.77
2023-01-01T00:08:11.075Z,458.60
2023-01-01T00:10:38.248Z,332.83
2023-01-01T00:13:05.334Z,376.30
2023-01-01T00:15:32.253Z,439.00
2023-01-01T00:17:59.843Z,429.47
2023-01-01T00:20:33.125Z,395.13
2023-01-01T00:23:05.003Z,458.40
2023-01-01T00:25:32.817Z,453.17
2023-01-01T00:27:59.869Z,446.57
2023-01-01T00:30:26.795Z,456.33
2023-01-01T00:32:55.757Z,464.57
2023-01-01T00:35:26.986Z,439.20
2023-01-01T00:37:54.970Z,445.23
2023-01-01T00:40:21.970Z,471.77
2023-01-01T00:42:48.839Z,449.50
2023-01-01T00:45:21.374Z,431.20
2023-01-01T00:47:50.040Z,448.20
2023-01-01T00:50:17.121Z,432.37
2023-01-01T00:52:44.306Z,430.57
2023-01-01T00:55:11.974Z,399.57
2023-01-01T00:57:38.845Z,426.47
2023-01-01T01:00:06.731Z,395.67
2023-01-01T01:02:33.900Z,387.80
2023-01-01T01:05:02.013Z,395.33
2023-01-01T01:07:33.064Z,406.13
2023-01-01T01:09:59.954Z,523.50
2023-01-01T01:12:26.796Z,458.97
2023-01-01T01:14:53.653Z,398.57
2023-01-01T01:17:20.485Z,459.93
2023-01-01T01:19:47.361Z,443.40
2023-01-01T01:22:14.228Z,482.47
2023-01-01T01:24:41.023Z,503.83
2023-01-01T01:27:07.910Z,429.10
2023-01-01T01:29:34.781Z,397.40
2023-01-01T01:32:02.455Z,365.07
2023-01-01T01:34:29.611Z,326.77
2023-01-01T01:36:56.915Z,343.60
2023-01-01T01:39:23.828Z,338.87
2023-01-01T01:41:51.008Z,370.33
2023-01-01T01:44:55.177Z,344.87
2023-01-01T01:47:29.652Z,328.00
2023-01-01T01:50:08.818Z,331.87
2023-01-01T01:52:39.499Z,391.52
2023-01-01T01:55:09.227Z,429.80
2023-01-01T01:57:39.345Z,477.10
2023-01-01T02:00:10.957Z,465.97
2023-01-01T02:03:08.136Z,478.30
2023-01-01T02:05:36.220Z,480.97
2023-01-01T02:08:05.141Z,515.17
2023-01-01T02:10:32.821Z,448.98
2023-01-01T02:12:59.915Z,437.10
2023-01-01T02:15:34.998Z,399.47
2023-01-01T02:18:07.155Z,402.43
2023-01-01T02:20:53.905Z,479.43
2023-01-01T02:23:26.668Z,460.47
2023-01-01T02:26:21.429Z,387.63
2023-01-01T02:29:03.408Z,372.77
2023-01-01T02:31:35.618Z,388.67
2023-01-01T02:34:08.181Z,341.60
2023-01-01T02:36:39.709Z,323.97
2023-01-01T02:39:09.345Z,293.60
2023-01-01T02:41:43.719Z,283.50
2023-01-01T02:44:11.964Z,292.27
2023-01-01T02:46:38.843Z,240.70
2023-01-01T02:49:10.207Z,248.70
2023-01-01T02:51:59.433Z,263.30
2023-01-01T02:54:41.826Z,260.70
2023-01-01T02:57:48.340Z,254.33
2023-01-01T03:00:31.717Z,287.57
2023-01-01T03:03:16.806Z,276.10
2023-01-01T03:06:11.806Z,270.47
2023-01-01T03:09:15.463Z,264.33
2023-01-01T03:12:10.587Z,282.70
2023-01-01T03:14:48.102Z,247.60
2023-01-01T03:17:35.582Z,253.57
2023-01-01T03:20:08.747Z,254.70
2023-01-01T03:25:15.718Z,260.83
2023-01-01T03:27:49.258Z,258.37
2023-01-01T03:30:20.137Z,270.40
2023-01-01T03:33:05.402Z,278.43
2023-01-01T03:35:58.666Z,299.10
2023-01-01T03:38:42.238Z,292.07
2023-01-01T03:41:21.307Z,285.97
2023-01-01T03:43:54.710Z,270.17
2023-01-01T05:05:34.137Z,194.97
2023-01-01T05:08:01.636Z,195.23
2023-01-01T05:10:28.479Z,207.47
2023-01-01T05:12:55.296Z,194.93
2023-01-01T05:15:22.203Z,188.77
2023-01-01T05:17:49.067Z,195.70
2023-01-01T05:20:16.038Z,201.07
2023-01-01T05:22:42.948Z,183.73
2023-01-01T05:25:10.018Z,183.67
2023-01-01T06:50:56.919Z,245.83
2023-01-01T06:53:25.657Z,224.70
2023-01-01T06:55:57.092Z,220.10
2023-01-01T06:58:24.558Z,223.77
2023-01-01T07:00:51.451Z,222.93
2023-01-01T07:03:18.476Z,205.43
2023-01-01T07:05:45.522Z,199.40
2023-01-01T07:08:12.407Z,206.37
2023-01-01T07:10:39.272Z,198.30
2023-01-01T07:13:06.135Z,188.90
2023-01-01T07:15:32.962Z,255.77
2023-01-01T07:17:59.954Z,212.23
2023-01-01T07:20:26.849Z,227.40
2023-01-01T07:22:53.654Z,188.70
2023-01-01T07:25:20.779Z,175.43
2023-01-01T07:27:49.103Z,174.93
2023-01-01T07:30:15.964Z,177.37
2023-01-01T07:32:42.787Z,174.40
2023-01-01T07:35:10.527Z,179.73
2023-01-01T07:37:37.589Z,177.63
2023-01-01T07:40:04.883Z,179.07
2023-01-01T07:42:31.696Z,173.10
2023-01-01T07:44:58.550Z,175.03
2023-01-01T07:47:26.981Z,182.57
2023-01-01T07:49:53.936Z,188.57
2023-01-01T07:52:20.987Z,174.60
2023-01-01T07:54:47.839Z,182.90
2023-01-01T07:57:14.691Z,160.00
2023-01-01T07:59:41.533Z,159.03
2023-01-01T08:02:11.896Z,151.80
2023-01-01T08:04:40.363Z,145.53
2023-01-01T08:07:07.442Z,154.07
2023-01-01T08:09:34.304Z,139.30
2023-01-01T08:12:02.072Z,138.27
2023-01-01T08:14:28.928Z,122.03
2023-01-01T08:16:55.804Z,124.07
2023-01-01T08:19:22.675Z,129.87
2023-01-01T08:21:49.639Z,132.13
2023-01-01T08:24:16.561Z,117.70
2023-01-01T08:26:43.445Z,116.68
2023-01-01T08:29:11.568Z,117.47
2023-01-01T08:31:38.471Z,126.83
2023-01-01T08:34:05.384Z,130.53
2023-01-01T08:36:32.642Z,109.13
2023-01-01T08:38:59.729Z,121.43
2023-01-01T08:41:26.647Z,119.37
2023-01-01T08:43:53.754Z,128.47
2023-01-01T08:46:20.713Z,128.83
2023-01-01T08:48:47.722Z,115.63
2023-01-01T08:51:14.603Z,122.83
2023-01-01T08:53:46.905Z,114.68
2023-01-01T08:56:17.516Z,113.07
2023-01-01T08:58:44.395Z,115.80
2023-01-01T09:01:11.892Z,114.23
2023-01-01T09:03:38.873Z,118.70
2023-01-01T09:06:06.226Z,110.93
2023-01-01T09:08:33.209Z,107.13
2023-01-01T09:11:02.171Z,110.03
2023-01-01T09:13:29.239Z,110.32
2023-01-01T09:15:56.827Z,110.37
2023-01-01T09:18:23.735Z,110.17
2023-01-01T09:20:50.703Z,115.17
2023-01-01T09:23:17.587Z,113.83
2023-01-01T09:25:44.481Z,108.10
2023-01-01T09:28:14.273Z,107.50
2023-01-01T09:30:41.561Z,105.07
2023-01-01T09:33:08.391Z,107.83
2023-01-01T09:35:36.445Z,108.55
2023-01-01T09:38:03.533Z,109.50
2023-01-01T09:40:53.615Z,106.47
2023-01-01T09:43:33.096Z,98.70
2023-01-01T09:46:06.875Z,104.03
2023-01-01T09:48:38.347Z,95.68
2023-01-01T09:51:11.456Z,107.90
2023-01-01T09:53:43.153Z,101.22
2023-01-01T09:56:24.920Z,101.57
2023-01-01T09:58:52.003Z,89.00
2023-01-01T10:01:40.435Z,86.50
2023-01-01T10:04:47.498Z,85.35
2023-01-01T10:07:33.386Z,84.05
2023-01-01T10:10:08.525Z,82.07
2023-01-01T10:12:48.979Z,78.35
2023-01-01T10:15:20.478Z,73.07
2023-01-01T10:17:50.406Z,74.45
2023-01-01T10:23:26.862Z,77.40
2023-01-01T10:25:57.362Z,73.05
2023-01-01T10:28:33.443Z,76.72
2023-01-01T10:31:36.655Z,80.35
2023-01-01T10:34:16.655Z,78.93
2023-01-01T10:36:44.511Z,79.53
2023-01-01T10:39:17.301Z,73.25
2023-01-01T10:41:45.906Z,74.35
2023-01-01T10:44:15.737Z,79.75
2023-01-01T10:46:48.189Z,73.35
2023-01-01T10:49:16.520Z,79.90
2023-01-01T10:51:48.580Z,90.70
2023-01-01T10:54:36.816Z,94.25
2023-01-01T10:57:14.306Z,98.57
2023-01-01T10:59:46.729Z,97.95
2023-01-01T11:02:25.942Z,96.70
2023-01-01T11:05:12.895Z,97.75
2023-01-01T11:07:44.062Z,100.65
2023-01-01T11:10:20.080Z,96.50
2023-01-01T11:13:04.651Z,97.68
2023-01-01T11:15:41.210Z,94.95
2023-01-01T11:18:18.009Z,97.38
2023-01-01T11:20:52.133Z,96.15
2023-01-01T11:23:35.038Z,98.93
2023-01-01T11:26:04.289Z,95.00
2023-01-01T11:28:35.087Z,95.03
2023-01-01T11:31:15.911Z,89.35
2023-01-01T11:33:51.080Z,84.85
2023-01-01T11:36:24.095Z,81.10
2023-01-01T11:39:06.167Z,85.25
2023-01-01T11:41:47.399Z,82.65
2023-01-01T11:44:30.186Z,86.75
2023-01-01T11:46:58.290Z,77.82
2023-01-01T11:49:28.659Z,82.28
2023-01-01T11:51:57.712Z,72.57
2023-01-01T11:54:33.282Z,71.45
2023-01-01T11:57:24.796Z,75.05
2023-01-01T12:00:01.148Z,77.82
2023-01-01T12:02:37.399Z,74.00
2023-01-01T12:05:16.232Z,78.25
2023-01-01T12:07:45.283Z,67.47
2023-01-01T12:10:33.683Z,70.50
2023-01-01T12:13:21.096Z,67.72
2023-01-01T12:16:14.292Z,69.80
2023-01-01T12:18:47.670Z,72.35
2023-01-01T12:21:26.928Z,65.55
2023-01-01T12:23:54.615Z,65.03
2023-01-01T12:26:49.021Z,63.03
2023-01-01T12:29:54.271Z,63.25
2023-01-01T12:32:43.520Z,66.00
2023-01-01T12:35:19.371Z,63.70
2023-01-01T12:38:19.074Z,63.55
2023-01-01T12:41:13.049Z,60.58
2023-01-01T12:44:04.222Z,64.38
2023-01-01T12:47:00.088Z,64.93
2023-01-01T12:49:42.311Z,59.75
2023-01-01T12:52:22.414Z,61.28
2023-01-01T12:55:07.467Z,62.30
2023-01-01T12:57:55.539Z,60.42
2023-01-01T13:00:22.472Z,59.60
2023-01-01T13:02:54.310Z,59.25
2023-01-01T13:05:44.025Z,53.03
2023-01-01T13:08:11.033Z,56.67
2023-01-01T13:10:40.633Z,55.47
2023-01-01T13:13:10.568Z,57.58
2023-01-01T13:15:38.039Z,55.03
2023-01-01T13:18:13.532Z,53.90
2023-01-01T13:20:54.492Z,53.38
2023-01-01T13:23:42.312Z,54.83
2023-01-01T13:26:18.747Z,57.05
2023-01-01T13:28:57.716Z,53.75
2023-01-01T13:31:39.959Z,54.97
2023-01-01T13:34:31.629Z,56.42
2023-01-01T13:37:19.869Z,48.88
2023-01-01T13:40:04.077Z,60.90
2023-01-01T13:42:41.180Z,48.47
2023-01-01T13:46:09.476Z,47.45
2023-01-01T13:48:44.123Z,50.40
2023-01-01T13:52:03.589Z,47.55
2023-01-01T13:54:29.641Z,48.10
2023-01-01T13:57:04.532Z,48.72
2023-01-01T13:59:47.576Z,49.53
2023-01-01T14:02:20.690Z,45.80
2023-01-01T14:04:50.664Z,46.70
2023-01-01T14:07:52.298Z,46.50
2023-01-01T14:10:25.942Z,49.95
2023-01-01T14:12:54.536Z,52.00
2023-01-01T14:15:24.882Z,50.03
2023-01-01T14:17:54.717Z,47.92
2023-01-01T14:20:24.179Z,56.70
2023-01-01T14:22:52.628Z,52.55
2023-01-01T14:25:30.194Z,52.47
2023-01-01T14:27:59.066Z,51.83
2023-01-01T14:30:32.446Z,53.97
2023-01-01T14:33:01.273Z,50.28
2023-01-01T14:35:29.676Z,54.78
2023-01-01T14:37:57.410Z,58.13
2023-01-01T14:40:28.358Z,53.42
2023-01-01T14:42:59.995Z,52.63
2023-01-01T14:45:27.596Z,54.53
2023-01-01T14:47:57.210Z,53.70
2023-01-01T14:50:30.354Z,52.67
2023-01-01T14:53:04.164Z,55.28
2023-01-01T14:55:39.810Z,55.47
2023-01-01T14:58:12.492Z,54.15
2023-01-01T15:00:39.391Z,52.78
2023-01-01T15:03:15.713Z,53.47
2023-01-01T15:05:44.662Z,56.00
2023-01-01T15:08:25.832Z,54.80
2023-01-01T15:10:53.663Z,57.25
2023-01-01T15:13:23.523Z,53.03
2023-01-01T15:15:53.023Z,58.65
2023-01-01T15:18:35.848Z,60.30
2023-01-01T15:21:10.596Z,62.17
2023-01-01T15:23:37.781Z,60.75
2023-01-01T15:26:09.584Z,64.65
2023-01-01T15:28:38.564Z,64.32
2023-01-01T15:31:05.871Z,62.22
2023-01-01T15:33:32.907Z,62.20
2023-01-01T15:36:04.047Z,58.70
2023-01-01T15:38:34.708Z,61.95
2023-01-01T15:41:01.797Z,65.30
2023-01-01T15:43:30.634Z,66.55
2023-01-01T15:46:17.504Z,68.25
2023-01-01T15:48:52.720Z,74.18
2023-01-01T15:51:23.378Z,87.43
2023-01-01T15:54:06.703Z,102.20
2023-01-01T15:56:40.084Z,72.28
2023-01-01T15:59:22.107Z,93.82
2023-01-01T16:01:49.480Z,82.55
2023-01-01T16:04:28.259Z,96.95
2023-01-01T16:09:23.701Z,128.77
2023-01-01T16:11:55.768Z,139.83
2023-01-01T16:14:23.876Z,114.57
2023-01-01T16:16:55.224Z,96.23
2023-01-01T16:19:23.350Z,98.70
2023-01-01T16:21:50.337Z,101.17
2023-01-01T16:24:19.242Z,93.57
2023-01-01T16:26:47.573Z,97.47
2023-01-01T16:29:14.672Z,91.43
2023-01-01T16:31:43.036Z,88.17
2023-01-01T16:34:16.337Z,88.93
2023-01-01T16:36:44.911Z,92.03
2023-01-01T16:39:12.090Z,91.43
2023-01-01T16:41:43.942Z,89.07
2023-01-01T16:44:13.449Z,93.97
2023-01-01T16:46:40.408Z,91.73
2023-01-01T16:49:08.558Z,91.77
2023-01-01T16:51:35.570Z,98.63
2023-01-01T16:54:02.815Z,100.13
2023-01-01T16:56:30.169Z,114.10
2023-01-01T16:59:02.709Z,114.40
2023-01-01T17:01:30.509Z,123.40
2023-01-01T17:03:57.634Z,96.40
2023-01-01T17:06:24.511Z,109.70
2023-01-01T17:08:51.347Z,126.80
2023-01-01T17:11:19.038Z,135.13
2023-01-01T17:13:47.714Z,135.80
2023-01-01T17:16:25.914Z,126.07
2023-01-01T17:21:40.429Z,130.30
2023-01-01T17:24:07.625Z,137.80
2023-01-01T17:26:34.873Z,139.30
2023-01-01T17:29:03.411Z,164.20
2023-01-01T17:31:31.013Z,131.63
2023-01-01T17:33:58.257Z,127.90
2023-01-01T17:36:28.920Z,122.87
2023-01-01T17:38:56.268Z,127.57
2023-01-01T17:41:23.827Z,132.33
2023-01-01T17:43:52.260Z,131.27
2023-01-01T17:46:29.919Z,150.63
2023-01-01T17:48:57.615Z,149.87
2023-01-01T17:51:24.981Z,225.93
2023-01-01T17:53:52.651Z,226.37
2023-01-01T17:56:20.686Z,201.07
2023-01-01T17:58:48.116Z,257.07
2023-01-01T18:01:24.581Z,269.00
2023-01-01T18:03:57.302Z,232.67
2023-01-01T18:06:24.490Z,174.80
2023-01-01T18:08:56.557Z,190.93
2023-01-01T18:11:25.497Z,203.87
2023-01-01T18:13:52.439Z,211.65
2023-01-01T18:16:19.403Z,205.83
2023-01-01T18:18:46.477Z,215.63
2023-01-01T18:21:19.543Z,133.73
2023-01-01T18:23:46.882Z,148.03
2023-01-01T18:26:13.898Z,170.60
2023-01-01T18:28:41.113Z,137.27
2023-01-01T18:31:12.398Z,123.63
2023-01-01T18:33:40.391Z,104.33
2023-01-01T18:36:12.180Z,113.65
2023-01-01T18:38:41.586Z,121.43
2023-01-01T18:41:08.643Z,137.07
2023-01-01T18:43:35.676Z,162.67
2023-01-01T18:46:02.651Z,147.60
2023-01-01T18:48:30.779Z,129.23
2023-01-01T18:50:57.820Z,175.27
2023-01-01T18:53:27.084Z,159.43
2023-01-01T18:56:03.727Z,138.23
2023-01-01T18:58:32.920Z,130.77
2023-01-01T19:01:00.551Z,109.25
2023-01-01T19:03:28.590Z,92.23
2023-01-01T19:05:57.511Z,115.87
2023-01-01T19:08:28.798Z,124.55
2023-01-01T19:10:59.222Z,119.20
2023-01-01T19:13:37.030Z,106.30
2023-01-01T19:16:13.262Z,112.63
2023-01-01T19:18:44.091Z,89.77
2023-01-01T19:21:11.027Z,128.00
2023-01-01T19:23:49.893Z,106.97
2023-01-01T19:26:31.890Z,102.57
2023-01-01T19:29:10.082Z,133.37
2023-01-01T19:31:37.003Z,122.17
2023-01-01T19:34:03.889Z,121.47
2023-01-01T19:36:30.924Z,94.93
2023-01-01T19:38:57.954Z,157.83
2023-01-01T19:41:24.864Z,98.90
2023-01-01T19:43:51.853Z,102.47
2023-01-01T19:46:18.789Z,116.27
2023-01-01T19:48:45.765Z,132.50
2023-01-01T19:51:12.668Z,136.53
2023-01-01T19:53:39.615Z,136.13
2023-01-01T19:56:06.853Z,158.00
2023-01-01T19:58:34.458Z,162.93
2023-01-01T20:01:03.513Z,150.73
2023-01-01T20:06:17.436Z,110.40
2023-01-01T20:08:44.328Z,115.03
2023-01-01T20:11:11.220Z,101.73
2023-01-01T20:13:38.134Z,108.03
2023-01-01T20:16:05.510Z,108.50
2023-01-01T20:18:32.756Z,111.83
2023-01-01T20:21:25.271Z,101.23
2023-01-01T20:23:53.450Z,98.90
2023-01-01T20:26:21.030Z,88.00
2023-01-01T20:29:06.481Z,75.00
2023-01-01T20:31:33.706Z,78.87
2023-01-01T20:34:00.651Z,90.97
2023-01-01T20:36:47.034Z,74.33
2023-01-01T20:39:14.016Z,68.40
2023-01-01T20:41:43.277Z,84.00
2023-01-01T20:44:10.548Z,75.28
2023-01-01T20:46:38.566Z,72.03
2023-01-01T20:49:05.937Z,60.07
2023-01-01T20:51:33.657Z,60.10
2023-01-01T20:54:00.541Z,85.90
2023-01-01T20:56:28.471Z,76.53
2023-01-01T20:59:00.074Z,59.17
2023-01-01T21:01:30.230Z,59.73
2023-01-01T21:03:57.634Z,58.33
2023-01-01T21:06:25.004Z,62.20
2023-01-01T21:08:52.872Z,60.53
2023-01-01T21:11:19.974Z,65.30
2023-01-01T21:13:47.528Z,78.10
2023-01-01T21:16:17.507Z,64.63
2023-01-01T21:18:45.201Z,66.27
2023-01-01T21:21:18.669Z,64.77
2023-01-01T21:23:45.695Z,65.97
2023-01-01T21:26:19.507Z,64.53
2023-01-01T21:28:47.337Z,62.73
2023-01-01T21:31:15.314Z,70.93
2023-01-01T21:33:44.922Z,56.50
2023-01-01T21:36:23.316Z,64.50
2023-01-01T21:38:54.961Z,76.23
2023-01-01T21:41:25.259Z,67.03
2023-01-01T21:43:58.142Z,47.93
2023-01-01T21:46:25.011Z,46.93
2023-01-01T21:49:27.197Z,51.63
2023-01-01T21:51:58.916Z,61.57
2023-01-01T21:54:32.071Z,61.30
2023-01-01T21:57:13.708Z,81.03
2023-01-01T21:59:44.303Z,82.03
2023-01-01T22:02:14.337Z,78.77
2023-01-01T22:04:48.780Z,82.53
2023-01-01T22:10:16.829Z,77.13
2023-01-01T22:12:44.250Z,80.03
2023-01-01T22:15:26.430Z,81.87
2023-01-01T22:18:11.121Z,87.20
2023-01-01T22:20:40.634Z,85.63
2023-01-01T22:25:43.328Z,104.30
2023-01-01T22:28:21.920Z,111.00
2023-01-01T22:30:53.340Z,114.35
2023-01-01T22:33:29.295Z,113.57
2023-01-01T22:35:57.121Z,115.13
2023-01-01T22:38:32.222Z,121.27
2023-01-01T22:40:59.797Z,134.13
2023-01-01T22:43:36.322Z,118.67
2023-01-01T22:46:12.471Z,132.03
2023-01-01T22:48:39.833Z,134.70
2023-01-01T22:51:21.492Z,158.23
2023-01-01T22:53:49.285Z,140.23
2023-01-01T22:56:16.361Z,131.37
2023-01-01T22:58:43.250Z,128.93
2023-01-01T23:01:10.645Z,178.17
2023-01-01T23:03:37.746Z,156.50
2023-01-01T23:06:05.197Z,190.30
2023-01-01T23:08:32.100Z,230.93
2023-01-01T23:10:59.908Z,191.47
2023-01-01T23:13:45.443Z,212.90
2023-01-01T23:16:12.528Z,159.73
2023-01-01T23:18:39.428Z,163.87
2023-01-01T23:21:21.402Z,165.37
2023-01-01T23:23:53.231Z,158.40
2023-01-01T23:26:20.604Z,150.68
2023-01-01T23:28:47.925Z,140.77
2023-01-01T23:31:22.768Z,133.30
2023-01-01T23:33:52.239Z,143.87
2023-01-01T23:36:19.325Z,125.47
2023-01-01T23:38:46.396Z,136.23
2023-01-01T23:41:13.452Z,135.83
2023-01-01T23:43:43.569Z,126.47
2023-01-01T23:46:13.288Z,127.80
2023-01-01T23:48:44.107Z,131.07
2023-01-01T23:51:11.837Z,120.40
2023-01-01T23:53:38.719Z,112.50
2023-01-01T23:56:05.858Z,124.83
2023-01-01T23:58:32.639Z,120.93
